Cutlerville, Michigan
Current Conditions -  °F | °C
As of 12:53 PM on Monday 26 Jan 2015 (Local Time) from KGRR Reporting Station
Overcast Overcast  
Wind Chill: 10°   Ceiling: 23000
Heat Index: 20°   Visibility: 10mi
Dew Point:   Wind: 8mph
Humidity: 62%   Direction: 90°E
Pressure: 29.92"   Gusts: NA
Location:  42.8657°N, 85.663°W
Report Text: KGRR 261753Z 09007KT 10SM FEW100 OVC230 M07/M13 A2992 RMK AO2 SLP147 4/003 T10671128 11067 21133 58010
Loading
Personal Weather Stations






























Interactive Weather Map New forecast layout! Learn more

10-Day Weather Forecast

Advertisements
Track Severe Weather on mobile